sensor_id;sensor_type;location;lat;lon;timestamp;temperature;humidity
24152;DHT22;12311;50.866;4.332;2023-04-24T04:53:09;9.00;99.90
24152;DHT22;12311;50.866;4.332;2023-04-24T04:55:36;9.00;99.90
24152;DHT22;12311;50.866;4.332;2023-04-24T04:58:02;9.00;99.90
24152;DHT22;12311;50.866;4.332;2023-04-24T05:00:28;8.90;99.90
24152;DHT22;12311;50.866;4.332;2023-04-24T05:02:59;8.80;99.90
24152;DHT22;12311;50.866;4.332;2023-04-24T05:05:25;8.80;99.90
24152;DHT22;12311;50.866;4.332;2023-04-24T05:07:50;8.70;99.90
24152;DHT22;12311;50.866;4.332;2023-04-24T05:10:16;8.80;99.90
24152;DHT22;12311;50.866;4.332;2023-04-24T05:12:42;8.90;99.90
24152;DHT22;12311;50.866;4.332;2023-04-24T05:15:08;8.80;99.90
24152;DHT22;12311;50.866;4.332;2023-04-24T05:17:33;8.80;99.90
24152;DHT22;12311;50.866;4.332;2023-04-24T05:19:59;8.80;99.90
24152;DHT22;12311;50.866;4.332;2023-04-24T05:22:26;8.80;99.90
24152;DHT22;12311;50.866;4.332;2023-04-24T05:24:52;8.80;99.90
24152;DHT22;12311;50.866;4.332;2023-04-24T05:27:18;8.80;99.90
24152;DHT22;12311;50.866;4.332;2023-04-24T05:29:44;8.80;99.90
24152;DHT22;12311;50.866;4.332;2023-04-24T05:32:10;8.70;99.90
24152;DHT22;12311;50.866;4.332;2023-04-24T05:34:36;8.80;99.90
24152;DHT22;12311;50.866;4.332;2023-04-24T05:37:02;8.80;99.90
24152;DHT22;12311;50.866;4.332;2023-04-24T05:39:28;8.90;99.90
24152;DHT22;12311;50.866;4.332;2023-04-24T05:41:54;8.80;99.90
24152;DHT22;12311;50.866;4.332;2023-04-24T05:44:23;8.80;99.90
24152;DHT22;12311;50.866;4.332;2023-04-24T05:46:48;8.70;99.90
24152;DHT22;12311;50.866;4.332;2023-04-24T05:49:14;8.70;99.90
24152;DHT22;12311;50.866;4.332;2023-04-24T05:51:41;8.70;99.90
24152;DHT22;12311;50.866;4.332;2023-04-24T05:54:07;8.80;99.90
24152;DHT22;12311;50.866;4.332;2023-04-24T05:56:32;8.70;99.90
24152;DHT22;12311;50.866;4.332;2023-04-24T05:58:58;8.70;99.90
24152;DHT22;12311;50.866;4.332;2023-04-24T06:01:24;8.70;99.90
24152;DHT22;12311;50.866;4.332;2023-04-24T06:03:50;8.60;99.90
24152;DHT22;12311;50.866;4.332;2023-04-24T06:06:16;8.50;99.90
24152;DHT22;12311;50.866;4.332;2023-04-24T06:08:42;8.50;99.90
24152;DHT22;12311;50.866;4.332;2023-04-24T06:11:09;8.50;99.90
24152;DHT22;12311;50.866;4.332;2023-04-24T06:13:35;8.50;99.90
24152;DHT22;12311;50.866;4.332;2023-04-24T06:16:01;8.50;99.90
24152;DHT22;12311;50.866;4.332;2023-04-24T06:18:27;8.50;99.90
24152;DHT22;12311;50.866;4.332;2023-04-24T06:20:52;8.50;99.90
24152;DHT22;12311;50.866;4.332;2023-04-24T06:23:18;8.50;99.90
24152;DHT22;12311;50.866;4.332;2023-04-24T06:25:44;8.50;99.90
24152;DHT22;12311;50.866;4.332;2023-04-24T06:28:09;8.50;99.90
24152;DHT22;12311;50.866;4.332;2023-04-24T06:30:35;8.50;99.90
24152;DHT22;12311;50.866;4.332;2023-04-24T06:33:00;8.40;99.90
24152;DHT22;12311;50.866;4.332;2023-04-24T06:35:26;8.50;99.90
24152;DHT22;12311;50.866;4.332;2023-04-24T06:37:52;8.50;99.90
24152;DHT22;12311;50.866;4.332;2023-04-24T06:40:17;8.50;99.90
24152;DHT22;12311;50.866;4.332;2023-04-24T06:42:46;8.50;99.90
24152;DHT22;12311;50.866;4.332;2023-04-24T06:45:11;8.60;99.90
24152;DHT22;12311;50.866;4.332;2023-04-24T06:47:37;8.60;99.90
24152;DHT22;12311;50.866;4.332;2023-04-24T06:50:03;8.70;99.90
24152;DHT22;12311;50.866;4.332;2023-04-24T06:52:29;8.80;99.90
24152;DHT22;12311;50.866;4.332;2023-04-24T06:55:02;8.80;99.90
24152;DHT22;12311;50.866;4.332;2023-04-24T06:57:28;8.80;99.90
24152;DHT22;12311;50.866;4.332;2023-04-24T06:59:54;8.80;99.90
24152;DHT22;12311;50.866;4.332;2023-04-24T07:02:20;8.90;99.90
24152;DHT22;12311;50.866;4.332;2023-04-24T07:04:45;8.90;99.90
24152;DHT22;12311;50.866;4.332;2023-04-24T07:07:12;8.90;99.90
24152;DHT22;12311;50.866;4.332;2023-04-24T07:09:39;8.90;99.90
24152;DHT22;12311;50.866;4.332;2023-04-24T07:12:08;9.00;99.90
24152;DHT22;12311;50.866;4.332;2023-04-24T07:14:34;9.00;99.90
24152;DHT22;12311;50.866;4.332;2023-04-24T07:17:00;9.10;99.90
24152;DHT22;12311;50.866;4.332;2023-04-24T07:19:26;9.20;99.90
24152;DHT22;12311;50.866;4.332;2023-04-24T07:21:52;9.30;99.90
24152;DHT22;12311;50.866;4.332;2023-04-24T07:24:19;9.40;99.90
24152;DHT22;12311;50.866;4.332;2023-04-24T07:26:44;9.40;99.90
24152;DHT22;12311;50.866;4.332;2023-04-24T07:29:12;9.50;99.90
24152;DHT22;12311;50.866;4.332;2023-04-24T07:31:39;9.40;99.90
24152;DHT22;12311;50.866;4.332;2023-04-24T07:34:06;9.50;99.90
24152;DHT22;12311;50.866;4.332;2023-04-24T07:36:32;9.50;99.90
24152;DHT22;12311;50.866;4.332;2023-04-24T07:38:57;9.60;99.90
24152;DHT22;12311;50.866;4.332;2023-04-24T07:41:23;9.60;99.90
24152;DHT22;12311;50.866;4.332;2023-04-24T07:43:49;9.60;99.90
24152;DHT22;12311;50.866;4.332;2023-04-24T07:46:15;9.40;99.90
24152;DHT22;12311;50.866;4.332;2023-04-24T07:48:41;9.30;99.90
24152;DHT22;12311;50.866;4.332;2023-04-24T07:51:07;9.20;99.90
24152;DHT22;12311;50.866;4.332;2023-04-24T07:53:35;9.20;99.90
24152;DHT22;12311;50.866;4.332;2023-04-24T07:56:01;9.30;99.90
24152;DHT22;12311;50.866;4.332;2023-04-24T07:58:26;9.40;99.90
24152;DHT22;12311;50.866;4.332;2023-04-24T08:00:52;9.60;99.90
24152;DHT22;12311;50.866;4.332;2023-04-24T08:03:18;9.80;99.90
24152;DHT22;12311;50.866;4.332;2023-04-24T08:05:45;9.80;99.90
24152;DHT22;12311;50.866;4.332;2023-04-24T08:08:11;9.80;99.90
24152;DHT22;12311;50.866;4.332;2023-04-24T08:10:37;9.90;99.90
24152;DHT22;12311;50.866;4.332;2023-04-24T08:13:02;9.60;99.90
24152;DHT22;12311;50.866;4.332;2023-04-24T08:15:28;9.70;99.90
24152;DHT22;12311;50.866;4.332;2023-04-24T08:17:54;9.70;99.90
24152;DHT22;12311;50.866;4.332;2023-04-24T08:20:20;9.90;99.90
24152;DHT22;12311;50.866;4.332;2023-04-24T08:22:46;9.90;99.90
24152;DHT22;12311;50.866;4.332;2023-04-24T08:25:13;10.00;99.90
24152;DHT22;12311;50.866;4.332;2023-04-24T08:27:39;9.90;99.90
24152;DHT22;12311;50.866;4.332;2023-04-24T08:30:05;10.00;99.90
24152;DHT22;12311;50.866;4.332;2023-04-24T08:32:31;10.00;99.90
24152;DHT22;12311;50.866;4.332;2023-04-24T08:34:58;10.10;99.90
24152;DHT22;12311;50.866;4.332;2023-04-24T08:37:26;10.10;99.90
24152;DHT22;12311;50.866;4.332;2023-04-24T08:39:52;10.20;99.90
24152;DHT22;12311;50.866;4.332;2023-04-24T08:42:19;10.10;99.90
24152;DHT22;12311;50.866;4.332;2023-04-24T08:44:45;10.10;99.90
24152;DHT22;12311;50.866;4.332;2023-04-24T08:47:11;10.20;99.90
24152;DHT22;12311;50.866;4.332;2023-04-24T08:49:38;10.20;99.90
24152;DHT22;12311;50.866;4.332;2023-04-24T08:52:07;10.30;99.90
24152;DHT22;12311;50.866;4.332;2023-04-24T08:54:36;10.30;99.90
24152;DHT22;12311;50.866;4.332;2023-04-24T08:57:03;10.50;99.90
24152;DHT22;12311;50.866;4.332;2023-04-24T08:59:32;10.70;99.90
24152;DHT22;12311;50.866;4.332;2023-04-24T09:01:59;10.70;99.90
24152;DHT22;12311;50.866;4.332;2023-04-24T09:04:26;10.70;99.90
24152;DHT22;12311;50.866;4.332;2023-04-24T09:06:57;10.70;99.90
24152;DHT22;12311;50.866;4.332;2023-04-24T09:09:30;10.90;99.90
24152;DHT22;12311;50.866;4.332;2023-04-24T09:11:56;11.10;99.90
24152;DHT22;12311;50.866;4.332;2023-04-24T09:14:23;11.30;99.90
24152;DHT22;12311;50.866;4.332;2023-04-24T09:16:49;11.30;99.90
24152;DHT22;12311;50.866;4.332;2023-04-24T09:19:15;11.30;99.90
24152;DHT22;12311;50.866;4.332;2023-04-24T09:21:45;11.60;99.90
24152;DHT22;12311;50.866;4.332;2023-04-24T09:24:16;11.80;99.90
24152;DHT22;12311;50.866;4.332;2023-04-24T09:26:48;11.70;99.90
24152;DHT22;12311;50.866;4.332;2023-04-24T09:29:18;11.50;99.90
24152;DHT22;12311;50.866;4.332;2023-04-24T09:31:45;11.50;99.90
24152;DHT22;12311;50.866;4.332;2023-04-24T09:34:11;11.40;99.90
24152;DHT22;12311;50.866;4.332;2023-04-24T09:36:42;11.50;99.90
24152;DHT22;12311;50.866;4.332;2023-04-24T09:39:13;11.60;99.90
24152;DHT22;12311;50.866;4.332;2023-04-24T09:41:45;11.40;99.90
24152;DHT22;12311;50.866;4.332;2023-04-24T09:44:13;11.40;99.90
24152;DHT22;12311;50.866;4.332;2023-04-24T09:46:40;11.70;99.90
24152;DHT22;12311;50.866;4.332;2023-04-24T09:49:13;11.80;99.90
24152;DHT22;12311;50.866;4.332;2023-04-24T09:51:40;11.90;99.90
24152;DHT22;12311;50.866;4.332;2023-04-24T09:54:20;11.90;99.90
24152;DHT22;12311;50.866;4.332;2023-04-24T09:56:48;11.90;99.90
24152;DHT22;12311;50.866;4.332;2023-04-24T09:59:16;11.90;99.90
24152;DHT22;12311;50.866;4.332;2023-04-24T10:01:42;12.00;99.90
24152;DHT22;12311;50.866;4.332;2023-04-24T10:06:46;12.60;99.90
24152;DHT22;12311;50.866;4.332;2023-04-24T10:09:12;12.60;99.90
24152;DHT22;12311;50.866;4.332;2023-04-24T10:11:43;12.50;99.90
24152;DHT22;12311;50.866;4.332;2023-04-24T10:14:17;12.50;99.90
24152;DHT22;12311;50.866;4.332;2023-04-24T10:16:43;12.60;99.90
24152;DHT22;12311;50.866;4.332;2023-04-24T10:19:10;12.30;99.90
24152;DHT22;12311;50.866;4.332;2023-04-24T10:21:36;12.20;99.90
24152;DHT22;12311;50.866;4.332;2023-04-24T10:24:08;12.00;99.90
24152;DHT22;12311;50.866;4.332;2023-04-24T10:26:35;11.90;99.90
24152;DHT22;12311;50.866;4.332;2023-04-24T10:29:01;11.90;99.90
24152;DHT22;12311;50.866;4.332;2023-04-24T10:31:30;12.10;99.90
24152;DHT22;12311;50.866;4.332;2023-04-24T10:34:00;12.20;99.90
24152;DHT22;12311;50.866;4.332;2023-04-24T10:36:28;12.20;99.90
24152;DHT22;12311;50.866;4.332;2023-04-24T10:38:56;12.40;99.90
24152;DHT22;12311;50.866;4.332;2023-04-24T10:41:25;12.50;99.90
24152;DHT22;12311;50.866;4.332;2023-04-24T10:44:11;12.60;99.90
24152;DHT22;12311;50.866;4.332;2023-04-24T10:46:38;12.60;99.90
24152;DHT22;12311;50.866;4.332;2023-04-24T10:49:05;12.60;99.90
24152;DHT22;12311;50.866;4.332;2023-04-24T10:51:51;12.60;99.90
24152;DHT22;12311;50.866;4.332;2023-04-24T10:54:35;12.50;99.90
24152;DHT22;12311;50.866;4.332;2023-04-24T10:57:33;12.60;99.90
24152;DHT22;12311;50.866;4.332;2023-04-24T11:00:19;12.90;99.90
24152;DHT22;12311;50.866;4.332;2023-04-24T11:02:47;13.00;99.90
24152;DHT22;12311;50.866;4.332;2023-04-24T11:05:19;13.10;99.90
24152;DHT22;12311;50.866;4.332;2023-04-24T11:08:14;12.70;99.90
24152;DHT22;12311;50.866;4.332;2023-04-24T11:10:45;12.50;99.90
24152;DHT22;12311;50.866;4.332;2023-04-24T11:13:13;12.40;99.90
24152;DHT22;12311;50.866;4.332;2023-04-24T11:15:41;12.40;99.90
24152;DHT22;12311;50.866;4.332;2023-04-24T11:18:13;12.50;99.90
24152;DHT22;12311;50.866;4.332;2023-04-24T11:20:42;12.80;99.90
24152;DHT22;12311;50.866;4.332;2023-04-24T11:23:08;12.90;99.90
24152;DHT22;12311;50.866;4.332;2023-04-24T11:25:35;13.10;99.90
24152;DHT22;12311;50.866;4.332;2023-04-24T11:28:05;13.50;99.90
24152;DHT22;12311;50.866;4.332;2023-04-24T11:30:32;13.20;99.90
24152;DHT22;12311;50.866;4.332;2023-04-24T11:33:05;13.10;99.90
24152;DHT22;12311;50.866;4.332;2023-04-24T11:35:36;13.20;99.90
24152;DHT22;12311;50.866;4.332;2023-04-24T11:38:04;13.20;99.90
24152;DHT22;12311;50.866;4.332;2023-04-24T11:40:31;13.40;99.90
24152;DHT22;12311;50.866;4.332;2023-04-24T11:42:59;13.50;99.90
24152;DHT22;12311;50.866;4.332;2023-04-24T11:45:27;13.70;99.90
24152;DHT22;12311;50.866;4.332;2023-04-24T11:47:53;13.60;99.90
24152;DHT22;12311;50.866;4.332;2023-04-24T11:50:22;13.50;99.90
24152;DHT22;12311;50.866;4.332;2023-04-24T11:52:49;13.50;99.90
24152;DHT22;12311;50.866;4.332;2023-04-24T11:57:48;13.90;99.90
24152;DHT22;12311;50.866;4.332;2023-04-24T12:00:17;14.30;99.90
24152;DHT22;12311;50.866;4.332;2023-04-24T12:02:44;14.30;99.90
24152;DHT22;12311;50.866;4.332;2023-04-24T12:05:24;14.20;99.90
24152;DHT22;12311;50.866;4.332;2023-04-24T12:07:51;13.90;99.90
24152;DHT22;12311;50.866;4.332;2023-04-24T12:10:25;14.10;99.90
24152;DHT22;12311;50.866;4.332;2023-04-24T12:12:52;14.20;99.90
24152;DHT22;12311;50.866;4.332;2023-04-24T12:15:19;14.30;99.90
24152;DHT22;12311;50.866;4.332;2023-04-24T12:17:46;14.30;99.90
24152;DHT22;12311;50.866;4.332;2023-04-24T12:20:12;14.40;99.90
24152;DHT22;12311;50.866;4.332;2023-04-24T12:22:51;14.70;99.90
24152;DHT22;12311;50.866;4.332;2023-04-24T12:25:20;15.00;99.90
24152;DHT22;12311;50.866;4.332;2023-04-24T12:27:52;15.30;99.90
24152;DHT22;12311;50.866;4.332;2023-04-24T12:30:19;15.40;99.90
24152;DHT22;12311;50.866;4.332;2023-04-24T12:32:48;15.50;99.90
24152;DHT22;12311;50.866;4.332;2023-04-24T12:35:18;15.60;99.90
24152;DHT22;12311;50.866;4.332;2023-04-24T12:37:45;15.10;99.90
24152;DHT22;12311;50.866;4.332;2023-04-24T12:40:12;14.90;99.90
24152;DHT22;12311;50.866;4.332;2023-04-24T12:42:45;14.80;99.90
24152;DHT22;12311;50.866;4.332;2023-04-24T12:45:12;14.50;99.90
24152;DHT22;12311;50.866;4.332;2023-04-24T12:47:39;14.70;99.90
24152;DHT22;12311;50.866;4.332;2023-04-24T12:50:09;15.00;99.90
24152;DHT22;12311;50.866;4.332;2023-04-24T12:52:36;15.20;99.90
24152;DHT22;12311;50.866;4.332;2023-04-24T12:55:02;15.80;99.90
24152;DHT22;12311;50.866;4.332;2023-04-24T12:57:29;16.70;99.90
24152;DHT22;12311;50.866;4.332;2023-04-24T12:59:56;17.40;99.90
24152;DHT22;12311;50.866;4.332;2023-04-24T13:02:27;17.90;99.90
24152;DHT22;12311;50.866;4.332;2023-04-24T13:04:54;18.10;99.90
24152;DHT22;12311;50.866;4.332;2023-04-24T13:07:21;17.60;99.90
24152;DHT22;12311;50.866;4.332;2023-04-24T13:09:48;16.80;99.90
24152;DHT22;12311;50.866;4.332;2023-04-24T13:12:14;15.90;99.90
24152;DHT22;12311;50.866;4.332;2023-04-24T13:14:40;15.50;99.90
24152;DHT22;12311;50.866;4.332;2023-04-24T13:17:06;15.30;99.90
24152;DHT22;12311;50.866;4.332;2023-04-24T13:19:40;15.10;99.90
24152;DHT22;12311;50.866;4.332;2023-04-24T13:22:06;14.80;99.90
24152;DHT22;12311;50.866;4.332;2023-04-24T13:24:33;14.80;99.90
24152;DHT22;12311;50.866;4.332;2023-04-24T13:26:59;14.80;99.90
24152;DHT22;12311;50.866;4.332;2023-04-24T13:29:25;14.90;99.90
24152;DHT22;12311;50.866;4.332;2023-04-24T13:31:51;15.40;99.90
24152;DHT22;12311;50.866;4.332;2023-04-24T13:34:19;15.70;99.90
24152;DHT22;12311;50.866;4.332;2023-04-24T13:36:45;15.80;99.90
24152;DHT22;12311;50.866;4.332;2023-04-24T13:39:11;15.20;99.90
24152;DHT22;12311;50.866;4.332;2023-04-24T13:41:37;14.90;99.90
24152;DHT22;12311;50.866;4.332;2023-04-24T13:44:04;14.40;99.90
24152;DHT22;12311;50.866;4.332;2023-04-24T13:46:30;14.50;99.90
24152;DHT22;12311;50.866;4.332;2023-04-24T13:48:56;14.30;99.90
24152;DHT22;12311;50.866;4.332;2023-04-24T13:51:23;14.30;99.90
24152;DHT22;12311;50.866;4.332;2023-04-24T13:53:49;14.60;99.90
24152;DHT22;12311;50.866;4.332;2023-04-24T13:56:14;15.60;99.90
24152;DHT22;12311;50.866;4.332;2023-04-24T13:58:40;16.80;99.90
24152;DHT22;12311;50.866;4.332;2023-04-24T14:01:06;17.70;99.90
24152;DHT22;12311;50.866;4.332;2023-04-24T14:03:33;17.80;99.90
24152;DHT22;12311;50.866;4.332;2023-04-24T14:05:59;17.40;99.90
24152;DHT22;12311;50.866;4.332;2023-04-24T14:08:25;16.80;99.90
24152;DHT22;12311;50.866;4.332;2023-04-24T14:10:51;16.30;99.90
24152;DHT22;12311;50.866;4.332;2023-04-24T14:13:17;15.80;99.90
24152;DHT22;12311;50.866;4.332;2023-04-24T14:15:42;15.80;99.90
24152;DHT22;12311;50.866;4.332;2023-04-24T14:18:08;15.90;99.90
24152;DHT22;12311;50.866;4.332;2023-04-24T14:20:34;16.10;99.90
24152;DHT22;12311;50.866;4.332;2023-04-24T14:23:00;16.10;99.90
24152;DHT22;12311;50.866;4.332;2023-04-24T14:25:26;15.90;99.90
24152;DHT22;12311;50.866;4.332;2023-04-24T14:27:51;15.30;99.90
24152;DHT22;12311;50.866;4.332;2023-04-24T14:30:17;14.90;99.90
24152;DHT22;12311;50.866;4.332;2023-04-24T14:32:43;14.60;99.90
24152;DHT22;12311;50.866;4.332;2023-04-24T14:35:09;14.50;99.90
24152;DHT22;12311;50.866;4.332;2023-04-24T14:37:35;14.30;99.90
24152;DHT22;12311;50.866;4.332;2023-04-24T14:40:02;14.30;99.90
24152;DHT22;12311;50.866;4.332;2023-04-24T14:42:28;14.30;99.90
24152;DHT22;12311;50.866;4.332;2023-04-24T14:44:54;14.30;99.90
24152;DHT22;12311;50.866;4.332;2023-04-24T14:47:20;14.00;99.90
24152;DHT22;12311;50.866;4.332;2023-04-24T14:49:48;13.80;99.90
24152;DHT22;12311;50.866;4.332;2023-04-24T14:52:13;13.80;99.90
24152;DHT22;12311;50.866;4.332;2023-04-24T14:54:39;13.80;99.90
24152;DHT22;12311;50.866;4.332;2023-04-24T14:57:05;13.70;99.90
24152;DHT22;12311;50.866;4.332;2023-04-24T14:59:31;13.80;99.90
24152;DHT22;12311;50.866;4.332;2023-04-24T15:01:57;13.80;99.90
24152;DHT22;12311;50.866;4.332;2023-04-24T15:04:27;13.90;99.90
24152;DHT22;12311;50.866;4.332;2023-04-24T15:06:54;14.10;99.90
24152;DHT22;12311;50.866;4.332;2023-04-24T15:09:20;14.20;99.90
24152;DHT22;12311;50.866;4.332;2023-04-24T15:11:46;14.20;99.90
24152;DHT22;12311;50.866;4.332;2023-04-24T15:14:12;14.20;99.90
24152;DHT22;12311;50.866;4.332;2023-04-24T15:16:38;14.10;99.90
24152;DHT22;12311;50.866;4.332;2023-04-24T15:19:03;14.00;99.90
24152;DHT22;12311;50.866;4.332;2023-04-24T15:21:29;13.80;99.90
24152;DHT22;12311;50.866;4.332;2023-04-24T15:23:55;13.80;99.90
24152;DHT22;12311;50.866;4.332;2023-04-24T15:26:21;13.70;99.90
24152;DHT22;12311;50.866;4.332;2023-04-24T15:28:46;13.60;99.90
24152;DHT22;12311;50.866;4.332;2023-04-24T15:31:12;13.60;99.90
24152;DHT22;12311;50.866;4.332;2023-04-24T15:33:38;13.80;99.90
24152;DHT22;12311;50.866;4.332;2023-04-24T15:36:04;13.70;99.90
24152;DHT22;12311;50.866;4.332;2023-04-24T15:38:30;13.70;99.90
24152;DHT22;12311;50.866;4.332;2023-04-24T15:40:56;13.70;99.90
24152;DHT22;12311;50.866;4.332;2023-04-24T15:43:22;13.80;99.90
24152;DHT22;12311;50.866;4.332;2023-04-24T15:45:49;14.00;99.90
24152;DHT22;12311;50.866;4.332;2023-04-24T15:48:15;13.90;99.90
24152;DHT22;12311;50.866;4.332;2023-04-24T15:50:42;13.80;99.90
24152;DHT22;12311;50.866;4.332;2023-04-24T15:53:07;13.70;99.90
24152;DHT22;12311;50.866;4.332;2023-04-24T15:55:34;13.70;99.90
24152;DHT22;12311;50.866;4.332;2023-04-24T15:58:00;13.80;99.90
24152;DHT22;12311;50.866;4.332;2023-04-24T16:00:26;13.60;99.90
24152;DHT22;12311;50.866;4.332;2023-04-24T16:03:01;13.50;99.90
24152;DHT22;12311;50.866;4.332;2023-04-24T16:05:27;13.60;99.90
24152;DHT22;12311;50.866;4.332;2023-04-24T16:07:53;13.70;99.90
24152;DHT22;12311;50.866;4.332;2023-04-24T16:10:19;13.60;99.90
24152;DHT22;12311;50.866;4.332;2023-04-24T16:12:44;13.50;99.90
24152;DHT22;12311;50.866;4.332;2023-04-24T16:15:11;13.40;99.90
24152;DHT22;12311;50.866;4.332;2023-04-24T16:17:36;13.40;99.90
24152;DHT22;12311;50.866;4.332;2023-04-24T16:20:03;13.10;99.90
24152;DHT22;12311;50.866;4.332;2023-04-24T16:22:30;13.20;99.90
24152;DHT22;12311;50.866;4.332;2023-04-24T16:24:55;13.40;99.90
24152;DHT22;12311;50.866;4.332;2023-04-24T16:27:24;13.50;99.90
24152;DHT22;12311;50.866;4.332;2023-04-24T16:29:49;13.30;99.90
24152;DHT22;12311;50.866;4.332;2023-04-24T16:32:15;13.20;99.90
24152;DHT22;12311;50.866;4.332;2023-04-24T16:34:41;13.20;99.90
24152;DHT22;12311;50.866;4.332;2023-04-24T16:37:07;13.30;99.90
24152;DHT22;12311;50.866;4.332;2023-04-24T16:39:33;13.40;99.90
24152;DHT22;12311;50.866;4.332;2023-04-24T16:41:59;13.40;99.90
24152;DHT22;12311;50.866;4.332;2023-04-24T16:44:26;14.10;99.90
24152;DHT22;12311;50.866;4.332;2023-04-24T16:46:52;15.10;99.90
24152;DHT22;12311;50.866;4.332;2023-04-24T16:49:17;16.10;99.90
24152;DHT22;12311;50.866;4.332;2023-04-24T16:51:43;16.60;99.90
24152;DHT22;12311;50.866;4.332;2023-04-24T16:54:10;16.60;99.90
24152;DHT22;12311;50.866;4.332;2023-04-24T16:56:35;17.10;99.90
24152;DHT22;12311;50.866;4.332;2023-04-24T16:59:01;17.40;99.90
24152;DHT22;12311;50.866;4.332;2023-04-24T17:01:27;17.80;99.90
24152;DHT22;12311;50.866;4.332;2023-04-24T17:03:53;18.60;99.90
24152;DHT22;12311;50.866;4.332;2023-04-24T17:06:18;19.00;99.90
24152;DHT22;12311;50.866;4.332;2023-04-24T17:08:45;18.90;99.90
24152;DHT22;12311;50.866;4.332;2023-04-24T17:11:10;18.80;99.90
24152;DHT22;12311;50.866;4.332;2023-04-24T17:13:36;17.70;99.90
24152;DHT22;12311;50.866;4.332;2023-04-24T17:16:02;17.10;99.90
24152;DHT22;12311;50.866;4.332;2023-04-24T17:18:27;16.60;99.90
24152;DHT22;12311;50.866;4.332;2023-04-24T17:20:53;16.00;99.90
24152;DHT22;12311;50.866;4.332;2023-04-24T17:23:20;15.70;99.90
24152;DHT22;12311;50.866;4.332;2023-04-24T17:25:45;15.20;99.90
24152;DHT22;12311;50.866;4.332;2023-04-24T17:28:29;14.70;99.90
24152;DHT22;12311;50.866;4.332;2023-04-24T17:30:55;14.40;99.90
24152;DHT22;12311;50.866;4.332;2023-04-24T17:33:25;14.30;99.90
24152;DHT22;12311;50.866;4.332;2023-04-24T17:35:51;14.20;99.90
24152;DHT22;12311;50.866;4.332;2023-04-24T17:38:18;14.00;99.90
24152;DHT22;12311;50.866;4.332;2023-04-24T17:40:43;13.90;99.90
24152;DHT22;12311;50.866;4.332;2023-04-24T17:43:12;13.50;99.90
24152;DHT22;12311;50.866;4.332;2023-04-24T17:45:50;13.40;99.90
24152;DHT22;12311;50.866;4.332;2023-04-24T17:48:17;13.30;99.90
24152;DHT22;12311;50.866;4.332;2023-04-24T17:50:43;13.10;99.90
24152;DHT22;12311;50.866;4.332;2023-04-24T17:53:10;13.10;99.90
24152;DHT22;12311;50.866;4.332;2023-04-24T17:55:36;13.20;99.90
24152;DHT22;12311;50.866;4.332;2023-04-24T17:58:03;13.20;99.90
24152;DHT22;12311;50.866;4.332;2023-04-24T18:00:30;13.10;99.90
24152;DHT22;12311;50.866;4.332;2023-04-24T18:02:56;12.80;99.90
24152;DHT22;12311;50.866;4.332;2023-04-24T18:05:37;12.60;99.90
24152;DHT22;12311;50.866;4.332;2023-04-24T18:08:03;12.40;99.90
24152;DHT22;12311;50.866;4.332;2023-04-24T18:10:30;12.20;99.90
24152;DHT22;12311;50.866;4.332;2023-04-24T18:12:57;11.90;99.90
24152;DHT22;12311;50.866;4.332;2023-04-24T18:15:23;12.00;99.90
24152;DHT22;12311;50.866;4.332;2023-04-24T18:17:48;12.00;99.90
24152;DHT22;12311;50.866;4.332;2023-04-24T18:20:16;11.90;99.90
24152;DHT22;12311;50.866;4.332;2023-04-24T18:22:42;11.90;99.90
24152;DHT22;12311;50.866;4.332;2023-04-24T18:25:08;11.80;99.90
24152;DHT22;12311;50.866;4.332;2023-04-24T18:27:39;11.80;99.90
24152;DHT22;12311;50.866;4.332;2023-04-24T18:30:07;11.80;99.90
24152;DHT22;12311;50.866;4.332;2023-04-24T18:32:33;11.80;99.90
24152;DHT22;12311;50.866;4.332;2023-04-24T18:34:59;11.80;99.90
24152;DHT22;12311;50.866;4.332;2023-04-24T18:37:25;11.70;99.90
24152;DHT22;12311;50.866;4.332;2023-04-24T18:39:51;11.60;99.90
24152;DHT22;12311;50.866;4.332;2023-04-24T18:42:17;11.60;99.90
24152;DHT22;12311;50.866;4.332;2023-04-24T18:44:43;11.40;99.90
24152;DHT22;12311;50.866;4.332;2023-04-24T18:47:09;11.20;99.90
24152;DHT22;12311;50.866;4.332;2023-04-24T18:49:35;11.10;99.90
24152;DHT22;12311;50.866;4.332;2023-04-24T18:52:01;11.00;99.90
24152;DHT22;12311;50.866;4.332;2023-04-24T18:54:27;11.00;99.90
24152;DHT22;12311;50.866;4.332;2023-04-24T18:56:53;10.90;99.90
24152;DHT22;12311;50.866;4.332;2023-04-24T18:59:18;10.90;99.90
24152;DHT22;12311;50.866;4.332;2023-04-24T19:01:44;10.90;99.90
24152;DHT22;12311;50.866;4.332;2023-04-24T19:04:10;11.00;99.90
24152;DHT22;12311;50.866;4.332;2023-04-24T19:06:36;10.90;99.90
24152;DHT22;12311;50.866;4.332;2023-04-24T19:09:02;11.00;99.90
24152;DHT22;12311;50.866;4.332;2023-04-24T19:11:28;10.90;99.90
24152;DHT22;12311;50.866;4.332;2023-04-24T19:13:54;10.90;99.90
24152;DHT22;12311;50.866;4.332;2023-04-24T19:16:20;10.90;99.90
24152;DHT22;12311;50.866;4.332;2023-04-24T19:18:45;10.90;99.90
24152;DHT22;12311;50.866;4.332;2023-04-24T19:21:11;10.80;99.90
24152;DHT22;12311;50.866;4.332;2023-04-24T19:23:37;10.80;99.90
24152;DHT22;12311;50.866;4.332;2023-04-24T19:26:06;10.80;99.90
24152;DHT22;12311;50.866;4.332;2023-04-24T19:28:32;10.80;99.90
24152;DHT22;12311;50.866;4.332;2023-04-24T19:30:57;10.70;99.90
24152;DHT22;12311;50.866;4.332;2023-04-24T19:33:24;10.70;99.90
24152;DHT22;12311;50.866;4.332;2023-04-24T19:35:50;10.60;99.90
24152;DHT22;12311;50.866;4.332;2023-04-24T19:38:16;10.70;99.90
24152;DHT22;12311;50.866;4.332;2023-04-24T19:40:41;10.70;99.90
24152;DHT22;12311;50.866;4.332;2023-04-24T19:43:07;10.60;99.90
24152;DHT22;12311;50.866;4.332;2023-04-24T19:45:33;10.60;99.90
24152;DHT22;12311;50.866;4.332;2023-04-24T19:47:58;10.60;99.90
24152;DHT22;12311;50.866;4.332;2023-04-24T19:50:25;10.70;99.90
24152;DHT22;12311;50.866;4.332;2023-04-24T19:52:51;10.70;99.90
24152;DHT22;12311;50.866;4.332;2023-04-24T19:55:17;10.70;99.90
24152;DHT22;12311;50.866;4.332;2023-04-24T19:57:43;10.60;99.90
24152;DHT22;12311;50.866;4.332;2023-04-24T20:00:09;10.60;99.90
24152;DHT22;12311;50.866;4.332;2023-04-24T20:02:35;10.60;99.90
24152;DHT22;12311;50.866;4.332;2023-04-24T20:05:00;10.60;99.90
24152;DHT22;12311;50.866;4.332;2023-04-24T20:07:26;10.50;99.90
24152;DHT22;12311;50.866;4.332;2023-04-24T20:09:52;10.60;99.90
24152;DHT22;12311;50.866;4.332;2023-04-24T20:12:17;10.40;99.90
24152;DHT22;12311;50.866;4.332;2023-04-24T20:14:46;10.40;99.90
24152;DHT22;12311;50.866;4.332;2023-04-24T20:17:12;10.30;99.90
24152;DHT22;12311;50.866;4.332;2023-04-24T20:19:38;10.20;99.90
24152;DHT22;12311;50.866;4.332;2023-04-24T20:22:06;10.30;99.90
24152;DHT22;12311;50.866;4.332;2023-04-24T20:24:32;10.30;99.90
24152;DHT22;12311;50.866;4.332;2023-04-24T20:26:58;10.30;99.90
24152;DHT22;12311;50.866;4.332;2023-04-24T20:29:24;10.10;99.90
24152;DHT22;12311;50.866;4.332;2023-04-24T20:31:51;10.00;99.90